createdAt,value
2022-12-08T00:01:48.925Z,98079.55
2022-12-08T00:04:29.746Z,98081.42
2022-12-08T00:07:30.023Z,98080.33
2022-12-08T00:10:46.678Z,98082.30
2022-12-08T00:13:13.900Z,98080.16
2022-12-08T00:15:54.740Z,98079.36
2022-12-08T00:18:35.921Z,98081.75
2022-12-08T00:21:23.757Z,98085.10
2022-12-08T00:24:11.735Z,98085.80
2022-12-08T00:26:53.751Z,98084.79
2022-12-08T00:29:34.887Z,98085.31
2022-12-08T00:32:15.812Z,98086.65
2022-12-08T00:35:10.737Z,98089.80
2022-12-08T00:38:01.061Z,98091.23
2022-12-08T00:40:35.880Z,98095.15
2022-12-08T00:43:23.910Z,98096.52
2022-12-08T00:46:05.971Z,98097.25
2022-12-08T00:48:53.750Z,98104.34
2022-12-08T00:51:35.730Z,98102.58
2022-12-08T00:54:31.746Z,98101.93
2022-12-08T00:57:19.732Z,98106.54
2022-12-08T01:00:00.845Z,98103.36
2022-12-08T01:02:55.788Z,98106.94
2022-12-08T01:05:43.736Z,98106.04
2022-12-08T01:08:25.797Z,98108.02
2022-12-08T01:11:16.926Z,98109.27
2022-12-08T01:13:52.905Z,98110.07
2022-12-08T01:16:42.767Z,98114.03
2022-12-08T01:19:30.731Z,98114.02
2022-12-08T01:22:05.173Z,98115.69
2022-12-08T01:24:52.716Z,98114.27
2022-12-08T01:27:27.185Z,98115.36
2022-12-08T01:30:14.727Z,98112.45
2022-12-08T01:32:49.212Z,98114.58
2022-12-08T01:35:36.847Z,98119.06
2022-12-08T01:38:12.290Z,98119.91
2022-12-08T01:40:59.919Z,98120.00
2022-12-08T01:43:59.441Z,98124.51
2022-12-08T01:46:49.733Z,98124.81
2022-12-08T01:49:32.657Z,98131.52
2022-12-08T01:52:35.739Z,98132.39
2022-12-08T01:55:40.871Z,98133.45
2022-12-08T01:58:36.897Z,98126.70
2022-12-08T02:01:12.643Z,98124.45
2022-12-08T02:04:15.841Z,98123.83
2022-12-08T02:06:52.168Z,98122.91
2022-12-08T02:09:39.748Z,98125.91
2022-12-08T02:12:14.231Z,98125.56
2022-12-08T02:15:05.045Z,98119.48
2022-12-08T02:17:53.732Z,98124.92
2022-12-08T02:20:45.030Z,98125.64
2022-12-08T02:23:29.893Z,98123.88
2022-12-08T02:26:27.866Z,98119.28
2022-12-08T02:29:18.876Z,98122.17
2022-12-08T02:32:04.967Z,98126.71
2022-12-08T02:34:58.707Z,98126.86
2022-12-08T02:38:11.970Z,98133.48
2022-12-08T02:41:11.699Z,98134.48
2022-12-08T02:43:54.853Z,98135.59
2022-12-08T02:46:46.746Z,98138.61
2022-12-08T02:49:21.872Z,98132.10
2022-12-08T02:52:18.916Z,98135.39
2022-12-08T02:55:00.408Z,98131.60
2022-12-08T02:58:06.728Z,98134.86
2022-12-08T03:01:25.884Z,98134.34
2022-12-08T03:04:58.837Z,98132.84
2022-12-08T03:07:56.949Z,98132.86
2022-12-08T03:10:37.066Z,98132.13
2022-12-08T03:13:28.899Z,98130.86
2022-12-08T03:16:04.044Z,98130.83
2022-12-08T03:18:57.902Z,98128.84
2022-12-08T03:21:33.043Z,98130.20
2022-12-08T03:24:22.819Z,98129.86
2022-12-08T03:27:00.844Z,98127.37
2022-12-08T03:29:48.712Z,98127.13
2022-12-08T03:33:05.691Z,98122.80
2022-12-08T03:35:54.841Z,98122.75
2022-12-08T03:38:36.839Z,98124.23
2022-12-08T03:41:31.838Z,98125.63
2022-12-08T03:44:19.880Z,98125.50
2022-12-08T03:46:55.015Z,98121.43
2022-12-08T03:49:42.719Z,98121.92
2022-12-08T03:52:17.986Z,98119.54
2022-12-08T03:55:05.819Z,98119.38
2022-12-08T03:57:47.903Z,98121.29
2022-12-08T04:00:42.834Z,98122.04
2022-12-08T04:03:30.859Z,98117.54
2022-12-08T04:06:05.995Z,98116.91
2022-12-08T04:08:53.910Z,98120.75
2022-12-08T04:11:28.827Z,98120.67
2022-12-08T04:14:16.801Z,98120.48
2022-12-08T04:16:58.897Z,98124.90
2022-12-08T04:19:53.687Z,98128.71
2022-12-08T04:22:41.692Z,98125.80
2022-12-08T04:25:16.832Z,98124.98
2022-12-08T04:28:04.808Z,98124.31
2022-12-08T04:30:47.013Z,98127.58
2022-12-08T04:33:34.850Z,98127.31
2022-12-08T04:36:11.926Z,98123.41
2022-12-08T04:38:59.867Z,98123.80
2022-12-08T04:41:35.000Z,98121.92
2022-12-08T04:44:22.834Z,98117.33
2022-12-08T04:47:04.853Z,98114.46
2022-12-08T04:49:59.832Z,98115.22
2022-12-08T04:52:47.696Z,98118.20
2022-12-08T04:55:22.821Z,98116.75
2022-12-08T04:58:10.664Z,98118.07
2022-12-08T05:00:44.870Z,98115.45
2022-12-08T05:03:32.886Z,98114.70
2022-12-08T05:06:08.028Z,98113.91
2022-12-08T05:08:55.863Z,98113.19
2022-12-08T05:11:31.100Z,98110.55
2022-12-08T05:14:19.691Z,98112.39
2022-12-08T05:16:55.300Z,98112.27
2022-12-08T05:19:43.851Z,98112.49
2022-12-08T05:22:18.986Z,98113.02
2022-12-08T05:25:06.819Z,98111.58
2022-12-08T05:27:42.572Z,98113.95
2022-12-08T05:30:30.815Z,98113.95
2022-12-08T05:33:05.951Z,98115.70
2022-12-08T05:35:55.068Z,98117.48
2022-12-08T05:38:36.882Z,98115.19
2022-12-08T05:41:33.872Z,98116.23
2022-12-08T05:44:21.873Z,98124.30
2022-12-08T05:47:03.675Z,98130.63
2022-12-08T05:49:58.857Z,98136.00
2022-12-08T05:52:46.729Z,98136.95
2022-12-08T05:55:21.819Z,98139.04
2022-12-08T05:58:09.656Z,98135.98
2022-12-08T06:00:51.680Z,98135.95
2022-12-08T06:03:47.664Z,98139.25
2022-12-08T06:06:36.667Z,98147.34
2022-12-08T06:09:13.280Z,98149.34
2022-12-08T06:12:01.872Z,98147.88
2022-12-08T06:14:49.742Z,98147.02
2022-12-08T06:17:25.072Z,98152.91
2022-12-08T06:20:12.878Z,98155.42
2022-12-08T06:22:48.154Z,98156.81
2022-12-08T06:25:36.658Z,98155.29
2022-12-08T06:28:17.652Z,98151.89
2022-12-08T06:30:58.840Z,98154.02
2022-12-08T06:33:39.655Z,98150.10
2022-12-08T06:36:22.857Z,98152.23
2022-12-08T06:39:03.677Z,98150.55
2022-12-08T06:42:03.184Z,98149.20
2022-12-08T06:44:45.655Z,98154.93
2022-12-08T06:47:29.792Z,98159.41
2022-12-08T06:50:12.639Z,98159.90
2022-12-08T06:53:05.208Z,98158.63
2022-12-08T06:55:58.834Z,98158.55
2022-12-08T06:58:52.311Z,98163.88
2022-12-08T07:01:27.321Z,98166.75
2022-12-08T07:04:15.864Z,98169.06
2022-12-08T07:06:51.316Z,98168.31
2022-12-08T07:09:39.839Z,98166.79
2022-12-08T07:12:34.846Z,98167.16
2022-12-08T07:15:23.724Z,98164.73
2022-12-08T07:18:00.304Z,98168.72
2022-12-08T07:20:48.648Z,98172.77
2022-12-08T07:23:30.640Z,98177.66
2022-12-08T07:26:26.644Z,98177.00
2022-12-08T07:29:26.041Z,98177.68
2022-12-08T07:32:21.694Z,98178.02
2022-12-08T07:35:09.838Z,98169.50
2022-12-08T07:37:52.745Z,98167.15
2022-12-08T07:40:40.834Z,98173.32
2022-12-08T07:43:15.919Z,98176.54
2022-12-08T07:46:03.896Z,98176.95
2022-12-08T07:48:38.971Z,98177.20
2022-12-08T07:51:27.841Z,98175.83
2022-12-08T07:54:03.194Z,98177.28
2022-12-08T07:56:50.868Z,98176.16
2022-12-08T07:59:26.910Z,98181.98
2022-12-08T08:02:25.680Z,98184.31
2022-12-08T08:05:16.090Z,98186.12
2022-12-08T08:07:51.267Z,98183.60
2022-12-08T08:10:39.643Z,98185.45
2022-12-08T08:13:20.864Z,98183.37
2022-12-08T08:16:08.942Z,98183.45
2022-12-08T08:19:00.725Z,98181.90
2022-12-08T08:21:46.954Z,98181.33
2022-12-08T08:24:31.840Z,98182.35
2022-12-08T08:27:26.625Z,98180.82
2022-12-08T08:30:20.722Z,98178.45
2022-12-08T08:32:56.792Z,98179.07
2022-12-08T08:35:44.841Z,98177.02
2022-12-08T08:38:19.969Z,98177.35
2022-12-08T08:41:10.127Z,98176.85
2022-12-08T08:43:45.804Z,98181.04
2022-12-08T08:46:33.927Z,98179.17
2022-12-08T08:49:09.161Z,98178.08
2022-12-08T08:51:57.162Z,98177.33
2022-12-08T08:54:31.946Z,98179.14
2022-12-08T08:57:25.245Z,98181.27
2022-12-08T09:00:08.747Z,98180.39
2022-12-08T09:03:03.839Z,98177.30
2022-12-08T09:05:51.865Z,98178.87
2022-12-08T09:08:33.900Z,98178.02
2022-12-08T09:11:30.813Z,98176.31
2022-12-08T09:14:21.632Z,98180.04
2022-12-08T09:16:56.766Z,98179.67
2022-12-08T09:19:44.621Z,98177.82
2022-12-08T09:22:25.780Z,98178.02
2022-12-08T09:25:06.611Z,98171.55
2022-12-08T09:27:54.626Z,98168.69
2022-12-08T09:30:49.682Z,98167.35
2022-12-08T09:33:37.637Z,98162.40
2022-12-08T09:36:19.815Z,98157.58
2022-12-08T09:39:01.575Z,98153.09
2022-12-08T09:41:56.733Z,98152.13
2022-12-08T09:44:48.053Z,98148.66
2022-12-08T09:47:42.744Z,98145.71
2022-12-08T09:50:20.796Z,98146.09
2022-12-08T09:53:22.715Z,98145.43
2022-12-08T09:55:59.898Z,98144.73
2022-12-08T09:59:06.676Z,98142.88
2022-12-08T10:01:44.042Z,98141.48
2022-12-08T10:04:34.729Z,98137.19
2022-12-08T10:07:24.355Z,98130.79
2022-12-08T10:10:18.727Z,98127.84
2022-12-08T10:13:25.199Z,98131.09
2022-12-08T10:16:33.720Z,98132.30
2022-12-08T10:19:14.982Z,98130.61
2022-12-08T10:22:03.617Z,98125.08
2022-12-08T10:24:55.197Z,98123.56
2022-12-08T10:27:42.628Z,98122.23
2022-12-08T10:30:37.702Z,98123.27
2022-12-08T10:33:28.610Z,98115.98
2022-12-08T10:36:05.068Z,98114.77
2022-12-08T10:38:52.612Z,98112.69
2022-12-08T10:41:34.703Z,98111.61
2022-12-08T10:44:23.601Z,98110.30
2022-12-08T10:46:58.810Z,98111.38
2022-12-08T10:49:46.600Z,98112.11
2022-12-08T10:52:37.622Z,98112.65
2022-12-08T10:55:34.692Z,98108.55
2022-12-08T10:58:40.998Z,98104.76
2022-12-08T11:01:24.815Z,98107.56
2022-12-08T11:04:20.597Z,98105.38
2022-12-08T11:06:56.748Z,98102.73
2022-12-08T11:09:47.606Z,98102.91
2022-12-08T11:12:23.752Z,98098.81
2022-12-08T11:15:11.601Z,98099.02
2022-12-08T11:17:57.555Z,98095.98
2022-12-08T11:20:46.608Z,98094.30
2022-12-08T11:23:30.902Z,98091.03
2022-12-08T11:26:33.669Z,98086.96
2022-12-08T11:29:28.583Z,98092.71
2022-12-08T11:32:20.612Z,98093.17
2022-12-08T11:35:08.589Z,98093.30
2022-12-08T11:38:20.459Z,98095.92
2022-12-08T11:41:17.020Z,98091.95
2022-12-08T11:44:12.762Z,98094.36
2022-12-08T11:47:05.604Z,98092.33
2022-12-08T11:49:42.120Z,98090.05
2022-12-08T11:52:51.605Z,98092.58
2022-12-08T11:55:49.688Z,98087.77
2022-12-08T11:58:57.611Z,98087.81
2022-12-08T12:01:36.739Z,98083.20
2022-12-08T12:04:32.608Z,98081.95
2022-12-08T12:07:26.737Z,98081.11
2022-12-08T12:10:29.612Z,98081.05
2022-12-08T12:13:10.792Z,98083.71
2022-12-08T12:15:58.585Z,98085.23
2022-12-08T12:18:36.870Z,98091.54
2022-12-08T12:21:35.583Z,98086.05
2022-12-08T12:24:28.325Z,98088.77
2022-12-08T12:27:28.596Z,98085.31
2022-12-08T12:30:36.624Z,98087.04
2022-12-08T12:33:31.653Z,98081.47
2022-12-08T12:36:14.448Z,98081.23
2022-12-08T12:39:12.593Z,98076.33
2022-12-08T12:41:50.955Z,98073.27
2022-12-08T12:44:41.653Z,98073.76
2022-12-08T12:47:44.950Z,98070.93
2022-12-08T12:50:47.603Z,98071.02
2022-12-08T12:53:21.980Z,98066.20
2022-12-08T12:56:16.602Z,98063.80
2022-12-08T12:58:54.149Z,98061.42
2022-12-08T13:02:00.628Z,98062.52
2022-12-08T13:04:37.988Z,98061.08
2022-12-08T13:07:34.583Z,98062.92
2022-12-08T13:10:19.650Z,98063.86
2022-12-08T13:13:25.574Z,98060.20
2022-12-08T13:16:19.431Z,98061.20
2022-12-08T13:19:17.574Z,98061.73
2022-12-08T13:21:52.096Z,98065.27
2022-12-08T13:24:39.600Z,98065.60
2022-12-08T13:27:20.576Z,98064.53
2022-12-08T13:31:00.649Z,98068.30
2022-12-08T13:33:48.572Z,98069.38
2022-12-08T13:36:33.723Z,98068.42
2022-12-08T13:39:27.567Z,98067.41
2022-12-08T13:42:16.584Z,98063.52
2022-12-08T13:45:27.992Z,98062.39
2022-12-08T13:56:24.784Z,98052.34
2022-12-08T13:58:02.802Z,98051.83
2022-12-08T14:00:43.606Z,98055.49
2022-12-08T14:03:25.724Z,98060.95
2022-12-08T14:06:12.707Z,98066.14
2022-12-08T14:09:02.581Z,98064.67
2022-12-08T14:11:54.582Z,98060.14
2022-12-08T14:15:03.216Z,98056.92
2022-12-08T14:17:46.928Z,98059.62
2022-12-08T14:21:18.843Z,98061.61
2022-12-08T14:23:44.834Z,98062.41
2022-12-08T14:26:32.851Z,98062.69
2022-12-08T14:29:09.965Z,98063.58
2022-12-08T14:31:57.633Z,98058.63
2022-12-08T14:34:46.581Z,98055.83
2022-12-08T14:37:28.781Z,98057.13
2022-12-08T14:40:14.427Z,98053.67
2022-12-08T14:43:13.867Z,98053.02
2022-12-08T14:45:58.135Z,98050.93
2022-12-08T14:48:45.572Z,98052.66
2022-12-08T14:51:19.962Z,98051.15
2022-12-08T14:54:11.625Z,98051.08
2022-12-08T14:57:08.565Z,98053.50
2022-12-08T14:59:56.573Z,98053.94
2022-12-08T15:02:34.755Z,98053.55
2022-12-08T15:05:25.651Z,98053.17
2022-12-08T15:08:05.877Z,98050.77
2022-12-08T15:10:54.616Z,98057.47
2022-12-08T15:13:31.667Z,98062.41
2022-12-08T15:16:48.641Z,98056.85
2022-12-08T15:19:37.861Z,98054.13
2022-12-08T15:22:29.799Z,98057.62
2022-12-08T15:25:16.140Z,98054.36
2022-12-08T15:27:59.629Z,98049.98
2022-12-08T15:30:40.764Z,98042.82
2022-12-08T15:33:21.662Z,98041.51
2022-12-08T15:36:03.773Z,98042.60
2022-12-08T15:38:51.629Z,98043.02
2022-12-08T15:41:26.745Z,98041.20
2022-12-08T15:44:16.565Z,98041.14
2022-12-08T15:46:51.984Z,98039.65
2022-12-08T15:49:44.411Z,98033.58
2022-12-08T15:52:25.792Z,98036.36
2022-12-08T15:55:13.654Z,98037.20
2022-12-08T16:01:01.664Z,98032.46
2022-12-08T16:09:51.076Z,98029.05
2022-12-08T16:13:55.702Z,98028.69
2022-12-08T16:16:00.400Z,98032.27
2022-12-08T16:18:50.576Z,98030.33
2022-12-08T16:24:38.605Z,98028.33
2022-12-08T16:28:00.384Z,98028.17
2022-12-08T16:30:30.865Z,98026.32
2022-12-08T16:33:13.950Z,98028.10
2022-12-08T16:35:57.564Z,98025.01
2022-12-08T16:38:39.109Z,98021.35
2022-12-08T16:41:42.761Z,98023.31
2022-12-08T16:44:32.769Z,98021.39
2022-12-08T16:47:18.577Z,98024.73
2022-12-08T16:50:07.569Z,98025.15
2022-12-08T16:52:48.556Z,98021.73
2022-12-08T16:55:29.701Z,98026.95
2022-12-08T16:58:10.569Z,98027.48
2022-12-08T17:00:51.715Z,98028.20
2022-12-08T17:03:33.763Z,98026.19
2022-12-08T17:06:29.992Z,98025.88
2022-12-08T17:09:13.587Z,98016.20
2022-12-08T17:12:01.843Z,98014.91
2022-12-08T17:14:46.987Z,98013.62
2022-12-08T17:17:34.833Z,98009.53
2022-12-08T17:20:16.188Z,98006.20
2022-12-08T17:23:10.856Z,98004.35
2022-12-08T17:26:16.587Z,98004.59
2022-12-08T17:29:11.571Z,98007.12
2022-12-08T17:32:06.753Z,98008.71
2022-12-08T17:34:54.702Z,98010.40
2022-12-08T17:37:30.742Z,98010.15
2022-12-08T17:40:19.644Z,98012.84
2022-12-08T17:42:57.724Z,98013.02
2022-12-08T17:45:52.626Z,98012.05
2022-12-08T17:48:27.670Z,98011.05
2022-12-08T17:51:16.561Z,98013.70
2022-12-08T17:53:51.733Z,98008.41
2022-12-08T17:56:39.732Z,98008.30
2022-12-08T17:59:21.542Z,98006.85
2022-12-08T18:02:17.816Z,98005.23
2022-12-08T18:05:15.299Z,98005.59
2022-12-08T18:08:11.814Z,98004.09
2022-12-08T18:11:02.023Z,98002.16
2022-12-08T18:13:45.745Z,97996.41
2022-12-08T18:16:29.247Z,97993.21
2022-12-08T18:19:18.529Z,97989.27
2022-12-08T18:21:53.005Z,97981.20
2022-12-08T18:24:41.530Z,97979.75
2022-12-08T18:27:15.996Z,97975.25
2022-12-08T18:30:04.185Z,97972.14
2022-12-08T18:32:46.811Z,97973.84
2022-12-08T18:35:35.563Z,97970.11
2022-12-08T18:38:09.983Z,97969.10
2022-12-08T18:40:57.556Z,97962.43
2022-12-08T18:43:40.736Z,97959.17
2022-12-08T18:46:22.743Z,97959.65
2022-12-08T18:49:04.030Z,97958.73
2022-12-08T18:51:46.899Z,97948.58
2022-12-08T18:54:57.781Z,97951.36
2022-12-08T18:57:37.753Z,97956.56
2022-12-08T19:00:33.583Z,97958.45
2022-12-08T19:03:21.545Z,97955.04
2022-12-08T19:05:58.040Z,97954.73
2022-12-08T19:08:45.600Z,97960.08
2022-12-08T19:11:33.708Z,97960.25
2022-12-08T19:14:28.468Z,97956.48
2022-12-08T19:17:11.673Z,97959.23
2022-12-08T19:19:59.549Z,97955.02
2022-12-08T19:22:34.658Z,97952.53
2022-12-08T19:25:22.671Z,97954.95
2022-12-08T19:28:05.598Z,97955.14
2022-12-08T19:31:00.565Z,97954.30
2022-12-08T19:33:48.761Z,97956.54
2022-12-08T19:36:26.308Z,97952.03
2022-12-08T19:39:35.069Z,97959.65
2022-12-08T19:42:36.012Z,97953.52
2022-12-08T19:45:28.601Z,97945.23
2022-12-08T19:48:03.734Z,97939.50
2022-12-08T19:50:54.704Z,97934.61
2022-12-08T19:53:32.031Z,97933.77
2022-12-08T19:56:19.517Z,97935.54
2022-12-08T19:59:02.539Z,97940.38
2022-12-08T20:01:51.723Z,97939.58
2022-12-08T20:04:33.634Z,97947.15
2022-12-08T20:07:28.589Z,97945.93
2022-12-08T20:10:22.513Z,97945.80
2022-12-08T20:13:17.627Z,97951.46
2022-12-08T20:16:05.781Z,97947.77
2022-12-08T20:18:44.906Z,97944.52
2022-12-08T20:21:32.522Z,97944.70
2022-12-08T20:24:07.818Z,97946.02
2022-12-08T20:26:57.972Z,97947.02
2022-12-08T20:29:46.499Z,97947.50
2022-12-08T20:32:27.681Z,97942.96
2022-12-08T20:35:15.525Z,97940.89
2022-12-08T20:37:51.091Z,97941.20
2022-12-08T20:40:40.547Z,97941.33
2022-12-08T20:43:15.031Z,97943.27
2022-12-08T20:46:04.608Z,97942.40
2022-12-08T20:48:39.988Z,97943.60
2022-12-08T20:51:32.580Z,97942.53
2022-12-08T20:54:07.021Z,97943.61
2022-12-08T20:56:58.745Z,97943.65
2022-12-08T20:59:34.245Z,97943.75
2022-12-08T21:02:24.624Z,97935.80
2022-12-08T21:05:07.999Z,97934.43
2022-12-08T21:07:55.572Z,97933.14
2022-12-08T21:10:43.542Z,97932.70
2022-12-08T21:13:31.542Z,97929.81
2022-12-08T21:16:06.619Z,97933.55
2022-12-08T21:18:57.634Z,97936.00
2022-12-08T21:21:33.828Z,97940.98
2022-12-08T21:24:22.562Z,97937.48
2022-12-08T21:27:03.667Z,97934.83
2022-12-08T21:29:58.539Z,97932.09
2022-12-08T21:32:46.881Z,97933.07
2022-12-08T21:35:21.894Z,97933.19
2022-12-08T21:38:13.068Z,97928.37
2022-12-08T21:40:47.668Z,97933.14
2022-12-08T21:43:35.542Z,97941.50
2022-12-08T21:46:23.159Z,97940.40
2022-12-08T21:49:04.509Z,97936.48
2022-12-08T21:51:53.759Z,97931.81
2022-12-08T21:54:35.867Z,97929.98
2022-12-08T21:57:23.654Z,97923.83
2022-12-08T21:59:57.996Z,97920.94
2022-12-08T22:02:45.768Z,97920.46
2022-12-08T22:05:20.982Z,97921.42
2022-12-08T22:08:08.597Z,97924.71
2022-12-08T22:10:54.659Z,97924.67
2022-12-08T22:13:42.776Z,97923.34
2022-12-08T22:16:24.765Z,97921.26
2022-12-08T22:19:13.580Z,97918.02
2022-12-08T22:21:48.129Z,97912.40
2022-12-08T22:24:36.735Z,97909.74
2022-12-08T22:27:12.026Z,97909.06
2022-12-08T22:30:01.621Z,97914.45
2022-12-08T22:32:36.466Z,97916.24
2022-12-08T22:35:24.656Z,97919.81
2022-12-08T22:37:59.027Z,97924.56
2022-12-08T22:40:46.552Z,97922.87
2022-12-08T22:43:22.733Z,97921.38
2022-12-08T22:46:13.133Z,97921.66
2022-12-08T22:48:55.744Z,97916.85
2022-12-08T22:51:37.788Z,97913.23
2022-12-08T22:54:19.562Z,97912.30
2022-12-08T22:57:00.703Z,97909.59
2022-12-08T22:59:41.924Z,97910.15
2022-12-08T23:02:30.908Z,97909.73
2022-12-08T23:05:16.831Z,97905.31
2022-12-08T23:07:58.808Z,97902.91
2022-12-08T23:10:47.765Z,97903.48
2022-12-08T23:13:56.892Z,97908.70
2022-12-08T23:17:05.497Z,97905.30
2022-12-08T23:20:09.449Z,97903.36
2022-12-08T23:23:14.693Z,97897.90
2022-12-08T23:26:38.672Z,97894.08
2022-12-08T23:29:51.025Z,97898.98
2022-12-08T23:38:07.524Z,97896.16
2022-12-08T23:41:44.490Z,97898.86
2022-12-08T23:44:19.807Z,97898.89
2022-12-08T23:47:07.910Z,97898.15
2022-12-08T23:49:42.838Z,97896.22
2022-12-08T23:52:30.830Z,97895.73
2022-12-08T23:55:12.692Z,97892.84
2022-12-08T23:58:07.826Z,97893.98
